sensor_id;sensor_type;location;lat;lon;timestamp;temperature;humidity
37342;DHT22;58643;49.052;8.518;2022-10-16T05:31:32;14.70;99.90
37342;DHT22;58643;49.052;8.518;2022-10-16T05:33:58;15.90;99.90
37342;DHT22;58643;49.052;8.518;2022-10-16T05:36:25;16.60;99.90
37342;DHT22;58643;49.052;8.518;2022-10-16T05:38:51;14.80;99.90
37342;DHT22;58643;49.052;8.518;2022-10-16T05:41:17;16.00;99.90
37342;DHT22;58643;49.052;8.518;2022-10-16T05:43:47;14.90;99.90
37342;DHT22;58643;49.052;8.518;2022-10-16T05:46:12;14.90;99.90
37342;DHT22;58643;49.052;8.518;2022-10-16T05:48:38;14.60;99.90
37342;DHT22;58643;49.052;8.518;2022-10-16T05:51:06;14.90;99.90
37342;DHT22;58643;49.052;8.518;2022-10-16T05:53:33;14.90;99.90
37342;DHT22;58643;49.052;8.518;2022-10-16T05:56:00;16.80;99.90
37342;DHT22;58643;49.052;8.518;2022-10-16T05:58:29;16.80;99.90
37342;DHT22;58643;49.052;8.518;2022-10-16T06:00:58;14.80;99.90
37342;DHT22;58643;49.052;8.518;2022-10-16T06:03:24;15.00;99.90
37342;DHT22;58643;49.052;8.518;2022-10-16T06:05:50;14.70;99.90
37342;DHT22;58643;49.052;8.518;2022-10-16T06:08:16;15.20;99.90
37342;DHT22;58643;49.052;8.518;2022-10-16T06:10:41;14.90;99.90
37342;DHT22;58643;49.052;8.518;2022-10-16T06:13:07;14.90;99.90
37342;DHT22;58643;49.052;8.518;2022-10-16T06:15:32;15.70;99.90
37342;DHT22;58643;49.052;8.518;2022-10-16T06:17:58;15.00;99.90
37342;DHT22;58643;49.052;8.518;2022-10-16T06:20:24;15.20;99.90
37342;DHT22;58643;49.052;8.518;2022-10-16T06:22:49;17.10;99.90
37342;DHT22;58643;49.052;8.518;2022-10-16T06:25:15;16.70;99.90
37342;DHT22;58643;49.052;8.518;2022-10-16T06:27:41;15.50;99.90
37342;DHT22;58643;49.052;8.518;2022-10-16T06:30:07;15.80;99.90
37342;DHT22;58643;49.052;8.518;2022-10-16T06:32:33;14.90;99.90
37342;DHT22;58643;49.052;8.518;2022-10-16T06:34:58;15.80;99.90
37342;DHT22;58643;49.052;8.518;2022-10-16T06:37:24;15.00;99.90
37342;DHT22;58643;49.052;8.518;2022-10-16T06:39:50;16.30;99.90
37342;DHT22;58643;49.052;8.518;2022-10-16T06:42:17;15.60;99.90
37342;DHT22;58643;49.052;8.518;2022-10-16T06:44:43;16.40;99.90
37342;DHT22;58643;49.052;8.518;2022-10-16T06:47:09;16.10;99.90
37342;DHT22;58643;49.052;8.518;2022-10-16T06:49:35;14.40;99.90
37342;DHT22;58643;49.052;8.518;2022-10-16T06:52:00;15.40;99.90
37342;DHT22;58643;49.052;8.518;2022-10-16T06:54:27;17.10;99.90
37342;DHT22;58643;49.052;8.518;2022-10-16T06:56:52;16.50;99.90
37342;DHT22;58643;49.052;8.518;2022-10-16T06:59:20;16.40;99.90
37342;DHT22;58643;49.052;8.518;2022-10-16T07:01:45;15.80;99.90
37342;DHT22;58643;49.052;8.518;2022-10-16T07:04:11;15.60;99.90
37342;DHT22;58643;49.052;8.518;2022-10-16T07:06:37;17.50;99.90
37342;DHT22;58643;49.052;8.518;2022-10-16T07:09:05;15.90;99.90
37342;DHT22;58643;49.052;8.518;2022-10-16T07:11:31;17.70;99.90
37342;DHT22;58643;49.052;8.518;2022-10-16T07:13:57;16.10;99.90
37342;DHT22;58643;49.052;8.518;2022-10-16T07:16:28;16.20;99.90
37342;DHT22;58643;49.052;8.518;2022-10-16T07:18:55;16.10;99.90
37342;DHT22;58643;49.052;8.518;2022-10-16T07:21:25;16.20;99.90
37342;DHT22;58643;49.052;8.518;2022-10-16T07:23:52;16.20;99.90
37342;DHT22;58643;49.052;8.518;2022-10-16T07:26:18;16.80;99.90
37342;DHT22;58643;49.052;8.518;2022-10-16T07:28:44;16.90;99.90
37342;DHT22;58643;49.052;8.518;2022-10-16T07:31:12;17.50;99.90
37342;DHT22;58643;49.052;8.518;2022-10-16T07:33:43;18.10;99.90
37342;DHT22;58643;49.052;8.518;2022-10-16T07:36:10;17.50;99.90
37342;DHT22;58643;49.052;8.518;2022-10-16T07:38:36;17.10;99.90
37342;DHT22;58643;49.052;8.518;2022-10-16T07:41:04;16.90;99.90
37342;DHT22;58643;49.052;8.518;2022-10-16T07:43:30;16.90;99.90
37342;DHT22;58643;49.052;8.518;2022-10-16T07:45:57;17.10;99.90
37342;DHT22;58643;49.052;8.518;2022-10-16T07:48:23;16.80;99.90
37342;DHT22;58643;49.052;8.518;2022-10-16T07:50:49;17.20;99.90
37342;DHT22;58643;49.052;8.518;2022-10-16T07:53:15;17.50;99.90
37342;DHT22;58643;49.052;8.518;2022-10-16T07:55:40;17.40;99.90
37342;DHT22;58643;49.052;8.518;2022-10-16T07:58:06;18.30;99.90
37342;DHT22;58643;49.052;8.518;2022-10-16T08:00:32;17.70;99.90
37342;DHT22;58643;49.052;8.518;2022-10-16T08:02:58;17.90;99.90
37342;DHT22;58643;49.052;8.518;2022-10-16T08:05:28;18.00;99.90
37342;DHT22;58643;49.052;8.518;2022-10-16T08:07:53;17.80;99.90
37342;DHT22;58643;49.052;8.518;2022-10-16T08:10:21;20.10;99.90
37342;DHT22;58643;49.052;8.518;2022-10-16T08:12:47;19.10;99.90
37342;DHT22;58643;49.052;8.518;2022-10-16T08:15:13;18.00;99.90
37342;DHT22;58643;49.052;8.518;2022-10-16T08:17:38;18.30;99.90
37342;DHT22;58643;49.052;8.518;2022-10-16T08:20:05;18.40;99.90
37342;DHT22;58643;49.052;8.518;2022-10-16T08:22:30;18.50;99.90
37342;DHT22;58643;49.052;8.518;2022-10-16T08:24:56;18.70;99.90
37342;DHT22;58643;49.052;8.518;2022-10-16T08:27:22;19.60;99.90
37342;DHT22;58643;49.052;8.518;2022-10-16T08:29:48;20.40;99.90
37342;DHT22;58643;49.052;8.518;2022-10-16T08:32:14;20.10;99.90
37342;DHT22;58643;49.052;8.518;2022-10-16T08:34:40;20.00;99.90
37342;DHT22;58643;49.052;8.518;2022-10-16T08:37:06;20.20;99.90
37342;DHT22;58643;49.052;8.518;2022-10-16T08:39:33;20.80;99.90
37342;DHT22;58643;49.052;8.518;2022-10-16T08:50:17;19.60;99.90
37342;DHT22;58643;49.052;8.518;2022-10-16T08:52:44;19.80;99.90
37342;DHT22;58643;49.052;8.518;2022-10-16T08:55:43;19.70;99.90
37342;DHT22;58643;49.052;8.518;2022-10-16T08:58:18;19.80;99.90
37342;DHT22;58643;49.052;8.518;2022-10-16T09:00:48;20.10;99.90
37342;DHT22;58643;49.052;8.518;2022-10-16T09:06:17;20.50;99.90
37342;DHT22;58643;49.052;8.518;2022-10-16T09:12:12;21.20;99.90
37342;DHT22;58643;49.052;8.518;2022-10-16T09:18:00;21.40;99.90
37342;DHT22;58643;49.052;8.518;2022-10-16T09:20:49;21.50;99.90
37342;DHT22;58643;49.052;8.518;2022-10-16T09:23:22;21.10;99.90
37342;DHT22;58643;49.052;8.518;2022-10-16T09:25:50;21.10;99.90
37342;DHT22;58643;49.052;8.518;2022-10-16T09:28:17;21.00;99.90
37342;DHT22;58643;49.052;8.518;2022-10-16T09:30:43;20.70;99.90
37342;DHT22;58643;49.052;8.518;2022-10-16T09:33:11;20.50;99.90
37342;DHT22;58643;49.052;8.518;2022-10-16T09:35:43;20.50;99.90
37342;DHT22;58643;49.052;8.518;2022-10-16T09:38:09;20.20;99.90
37342;DHT22;58643;49.052;8.518;2022-10-16T09:40:46;20.40;99.90
37342;DHT22;58643;49.052;8.518;2022-10-16T09:43:26;20.50;99.90
37342;DHT22;58643;49.052;8.518;2022-10-16T09:46:02;20.30;99.90
37342;DHT22;58643;49.052;8.518;2022-10-16T09:48:44;21.20;99.90
37342;DHT22;58643;49.052;8.518;2022-10-16T09:51:38;20.70;99.90
37342;DHT22;58643;49.052;8.518;2022-10-16T09:56:34;21.80;99.90
37342;DHT22;58643;49.052;8.518;2022-10-16T09:59:08;22.90;99.90
37342;DHT22;58643;49.052;8.518;2022-10-16T10:01:47;23.80;99.90
37342;DHT22;58643;49.052;8.518;2022-10-16T10:04:13;24.20;99.90
37342;DHT22;58643;49.052;8.518;2022-10-16T10:06:49;24.80;99.90
37342;DHT22;58643;49.052;8.518;2022-10-16T10:09:21;25.10;99.90
37342;DHT22;58643;49.052;8.518;2022-10-16T10:11:58;25.70;99.90
37342;DHT22;58643;49.052;8.518;2022-10-16T10:14:37;26.20;99.90
37342;DHT22;58643;49.052;8.518;2022-10-16T10:19:57;26.30;99.90
37342;DHT22;58643;49.052;8.518;2022-10-16T10:22:41;27.50;99.90
37342;DHT22;58643;49.052;8.518;2022-10-16T10:27:55;27.60;99.90
37342;DHT22;58643;49.052;8.518;2022-10-16T10:44:21;26.90;99.90
37342;DHT22;58643;49.052;8.518;2022-10-16T10:46:51;26.60;99.90
37342;DHT22;58643;49.052;8.518;2022-10-16T10:52:28;26.30;99.90
37342;DHT22;58643;49.052;8.518;2022-10-16T10:55:09;27.30;99.90
37342;DHT22;58643;49.052;8.518;2022-10-16T10:57:54;26.80;99.90
37342;DHT22;58643;49.052;8.518;2022-10-16T11:09:15;24.20;99.90
37342;DHT22;58643;49.052;8.518;2022-10-16T11:14:24;23.00;99.90
37342;DHT22;58643;49.052;8.518;2022-10-16T11:17:01;23.20;99.90
37342;DHT22;58643;49.052;8.518;2022-10-16T11:19:54;24.20;99.90
37342;DHT22;58643;49.052;8.518;2022-10-16T11:22:31;23.50;99.90
37342;DHT22;58643;49.052;8.518;2022-10-16T11:25:20;24.00;99.90
